LGKF

Details ICAO LGKF (EFL)
Name Kefallinia
Region Greece
Timezone Europe/Athens (UTC+2.0)
Plans Departing 49
Arriving 115
Stats Elevation 59 ft / 18 m (AMSL)
Location 38.120069° 20.500480°
Runways 1
Magnetic Variation 4.053° E
Sunrise 2017-12-17 05:49:49 UTC / 2017-12-17 07:49:49 Local
Sunset 2017-12-17 15:21:06 UTC / 2017-12-17 17:21:06 Local
Advertisement - Login to hide

Runways

ID Width Length Bearing (true) Bearing (mag) Surface Threshold Offset Overrun Length
14 148 ft / 45 m 7,979 ft / 2,432 m 146.39° 142.34° Asphalt 0 ft / 0 m 180 ft / 55 m
32 148 ft / 45 m 7,979 ft / 2,432 m 326.40° 322.35° Asphalt 912 ft / 278 m 100 ft / 30 m

Map

Weather


0- 5 10 15 20 25 30 35+ Temperature / ° C

Clouds and Precipitation
Forecast for 2017-12-17 18:00 UTC. Updated 2 hours ago

Ground ~20,000 ft ~40,000 ft Winds

METAR

LGKF 171750Z 29008KT 9999 SCT018 13/08 Q1015

TAF

Not found

Frequencies

Tower 122.25 MHz AFIS INFO
Warning: Do not use this data for real-world aviation or navigation. No guarantee of current accuracy is given.